Etusivu
METAR-TAF:

METAR-TAF

Lentoasemat :

Yellowstone Airport

West Yellowstone, Montana, Yhdysvallat

Leveyspiiri: 44-39N, Pituuspiiri: 111-06W, korkeus merenpinnasta: 2031 m

Tämänhetkinen sää

Tämä raportti tehtiin 17 minuuttia sitten, kello 07.15 UTC
Tuuli 15 kn etelästä/lounaasta
Lämpötila -1°C
Kosteus 93%
Ilmanpaine 1023 hPa
Näkyvyys: 12.9 km
Hajanaisia pilviä 1300 ft:n korkeudessa
Hajonneita pilviä 2100 ft:n korkeudessa
Pilvistä 3700 ft:n korkeudessa

METAR: KWYS 250715Z AUTO 21015KT 8SM SCT013 BKN021 OVC037 M01/M02 A3022 RMK AO2

Aika: 01:32 (07:32 UTC)


TAF: puuttuu

Säähavainnot ja -ennusteet yli 4000 lentoasemalta (METAR- ja TAF-raportit).

Käytössä olevat sääasemat on merkitty karttaan keltaisilla ja punaisilla pisteillä.

Aseta hiiri pisteen päälle nähdäksesi sääaseman nimen.

Klikkaa sitten nähdäksesi säähavainnot ja -ennusteet.

Kartan vaihtaminen: klikkaa mustalla rastilla varustettuja vihreitä pisteitä, niin voit zoomata sisään; viivalla varustettua vihreää pistettä, niin voit zoomata ulos tai vihreitä nuolia, niin pääset viereisille kartoille.


METAR-TAF: